createdAt,value
2017-06-29T00:00:31.608Z,16.60
2017-06-29T00:02:59.925Z,18.90
2017-06-29T00:05:27.485Z,17.03
2017-06-29T00:07:55.000Z,18.00
2017-06-29T00:10:23.326Z,18.53
2017-06-29T00:12:50.872Z,18.80
2017-06-29T00:15:18.537Z,18.80
2017-06-29T00:17:46.092Z,17.30
2017-06-29T00:20:13.653Z,19.00
2017-06-29T00:22:41.218Z,17.30
2017-06-29T00:25:08.749Z,18.10
2017-06-29T00:27:36.329Z,18.43
2017-06-29T00:30:03.850Z,18.30
2017-06-29T00:32:32.169Z,19.37
2017-06-29T00:34:59.688Z,17.90
2017-06-29T00:37:28.001Z,20.53
2017-06-29T00:39:55.561Z,20.20
2017-06-29T00:42:23.121Z,19.43
2017-06-29T00:44:50.685Z,19.27
2017-06-29T00:47:18.210Z,20.47
2017-06-29T00:49:45.737Z,20.70
2017-06-29T00:52:13.353Z,21.20
2017-06-29T00:54:40.869Z,20.67
2017-06-29T00:57:09.154Z,21.70
2017-06-29T00:59:37.469Z,23.20
2017-06-29T01:02:05.022Z,22.47
2017-06-29T01:04:32.582Z,21.40
2017-06-29T01:07:00.105Z,23.27
2017-06-29T01:09:28.417Z,23.40
2017-06-29T01:11:55.977Z,24.50
2017-06-29T01:14:23.506Z,23.23
2017-06-29T01:16:51.102Z,23.40
2017-06-29T01:19:18.662Z,26.30
2017-06-29T01:21:46.194Z,25.47
2017-06-29T01:24:13.770Z,25.90
2017-06-29T01:26:41.328Z,26.63
2017-06-29T01:29:08.853Z,23.90
2017-06-29T01:31:37.165Z,24.47
2017-06-29T01:34:04.722Z,23.83
2017-06-29T01:36:32.281Z,25.33
2017-06-29T01:38:59.801Z,25.23
2017-06-29T01:41:28.101Z,24.27
2017-06-29T01:43:55.688Z,25.30
2017-06-29T01:46:23.236Z,25.90
2017-06-29T01:48:50.766Z,25.60
2017-06-29T01:51:18.287Z,25.10
2017-06-29T01:53:45.911Z,25.73
2017-06-29T01:56:13.469Z,26.43
2017-06-29T01:58:41.033Z,26.00
2017-06-29T02:01:08.549Z,25.00
2017-06-29T02:03:36.864Z,25.90
2017-06-29T02:06:04.424Z,23.27
2017-06-29T02:08:31.985Z,25.17
2017-06-29T02:10:59.542Z,23.33
2017-06-29T02:13:27.073Z,25.60
2017-06-29T02:15:54.660Z,23.97
2017-06-29T02:18:22.217Z,22.80
2017-06-29T02:20:49.776Z,23.67
2017-06-29T02:23:17.337Z,22.50
2017-06-29T02:25:44.861Z,21.00
2017-06-29T02:28:13.173Z,21.40
2017-06-29T02:30:40.733Z,19.30
2017-06-29T02:33:08.261Z,18.67
2017-06-29T02:35:35.849Z,19.30
2017-06-29T02:38:03.409Z,20.67
2017-06-29T02:40:30.965Z,17.13
2017-06-29T02:42:58.530Z,18.90
2017-06-29T02:45:26.049Z,18.33
2017-06-29T02:47:54.417Z,17.77
2017-06-29T02:50:22.737Z,17.67
2017-06-29T02:52:50.297Z,16.60
2017-06-29T02:55:17.956Z,17.37
2017-06-29T02:57:45.520Z,15.80
2017-06-29T03:00:13.044Z,14.70
2017-06-29T03:02:41.328Z,15.90
2017-06-29T03:05:08.854Z,15.23
2017-06-29T03:07:36.476Z,13.67
2017-06-29T03:10:04.033Z,12.93
2017-06-29T03:12:31.589Z,13.40
2017-06-29T03:14:59.109Z,13.10
2017-06-29T03:17:27.421Z,15.00
2017-06-29T03:19:54.988Z,13.40
2017-06-29T03:22:22.540Z,14.17
2017-06-29T03:24:50.065Z,15.70
2017-06-29T03:27:18.376Z,14.93
2017-06-29T03:29:45.937Z,14.33
2017-06-29T03:32:13.492Z,15.20
2017-06-29T03:34:41.056Z,15.83
2017-06-29T03:37:08.613Z,16.13
2017-06-29T03:39:36.137Z,13.63
2017-06-29T03:42:04.424Z,15.40
2017-06-29T03:44:32.005Z,14.77
2017-06-29T03:46:59.533Z,14.40
2017-06-29T03:49:27.816Z,14.47
2017-06-29T03:51:55.407Z,13.80
2017-06-29T03:54:22.958Z,13.57
2017-06-29T03:56:50.517Z,13.27
2017-06-29T03:59:18.049Z,12.73
2017-06-29T04:01:45.633Z,13.33
2017-06-29T04:04:13.153Z,13.10
2017-06-29T04:06:41.471Z,13.50
2017-06-29T04:09:09.027Z,12.97
2017-06-29T04:11:36.544Z,12.17
2017-06-29T04:14:04.861Z,10.03
2017-06-29T04:16:32.421Z,13.73
2017-06-29T04:18:59.937Z,10.97
2017-06-29T04:21:28.260Z,9.80
2017-06-29T04:23:55.772Z,10.33
2017-06-29T04:26:24.068Z,11.20
2017-06-29T04:28:51.594Z,10.27
2017-06-29T04:31:19.218Z,10.40
2017-06-29T04:33:46.769Z,10.50
2017-06-29T04:36:14.326Z,12.70
2017-06-29T04:38:41.886Z,9.83
2017-06-29T04:41:09.445Z,10.30
2017-06-29T04:43:37.004Z,9.33
2017-06-29T04:46:04.529Z,9.40
2017-06-29T04:48:32.125Z,10.03
2017-06-29T04:50:59.637Z,9.30
2017-06-29T04:53:27.956Z,10.30
2017-06-29T04:55:55.517Z,10.17
2017-06-29T04:58:23.077Z,12.33
2017-06-29T05:00:50.636Z,11.10
2017-06-29T05:03:18.193Z,9.83
2017-06-29T05:05:45.753Z,9.60
2017-06-29T05:08:13.310Z,10.30
2017-06-29T05:10:40.840Z,9.80
2017-06-29T05:13:09.146Z,9.87
2017-06-29T05:15:36.707Z,10.00
2017-06-29T05:18:04.272Z,9.10
2017-06-29T05:20:31.792Z,9.00
2017-06-29T05:22:59.324Z,9.30
2017-06-29T05:25:26.845Z,12.40
2017-06-29T05:27:54.360Z,9.60
2017-06-29T05:30:22.671Z,8.90
2017-06-29T05:32:50.240Z,8.70
2017-06-29T05:35:17.791Z,9.23
2017-06-29T05:37:45.453Z,8.90
2017-06-29T05:40:13.009Z,10.00
2017-06-29T05:42:40.569Z,8.97
2017-06-29T05:45:08.092Z,9.33
2017-06-29T05:47:36.376Z,9.40
2017-06-29T05:50:04.681Z,8.90
2017-06-29T05:52:32.214Z,10.40
2017-06-29T05:54:59.796Z,9.57
2017-06-29T05:57:27.361Z,8.97
2017-06-29T05:59:54.893Z,9.47
2017-06-29T06:02:22.412Z,10.33
2017-06-29T06:04:49.932Z,9.40
2017-06-29T06:07:17.490Z,8.27
2017-06-29T06:09:45.046Z,7.37
2017-06-29T06:12:12.569Z,8.10
2017-06-29T06:14:40.885Z,8.17
2017-06-29T06:17:08.397Z,7.30
2017-06-29T06:19:36.718Z,10.57
2017-06-29T06:22:04.276Z,7.33
2017-06-29T06:24:31.838Z,7.70
2017-06-29T06:26:59.395Z,7.77
2017-06-29T06:29:26.917Z,6.87
2017-06-29T06:31:55.233Z,6.73
2017-06-29T06:34:22.789Z,6.53
2017-06-29T06:36:50.349Z,5.80
2017-06-29T06:39:17.865Z,6.50
2017-06-29T06:41:46.185Z,5.93
2017-06-29T06:44:13.707Z,6.93
2017-06-29T06:46:42.017Z,5.40
2017-06-29T06:49:09.578Z,5.60
2017-06-29T06:51:37.137Z,5.30
2017-06-29T06:54:04.697Z,5.30
2017-06-29T06:56:32.257Z,6.37
2017-06-29T06:58:59.816Z,4.77
2017-06-29T07:01:27.372Z,5.50
2017-06-29T07:03:54.881Z,4.80
2017-06-29T07:06:22.497Z,4.77
2017-06-29T07:08:50.050Z,4.60
2017-06-29T07:11:17.613Z,4.97
2017-06-29T07:13:45.169Z,4.77
2017-06-29T07:16:12.685Z,4.20
2017-06-29T07:18:41.005Z,4.60
2017-06-29T07:21:08.562Z,4.63
2017-06-29T07:23:36.125Z,4.30
2017-06-29T07:26:03.681Z,4.00
2017-06-29T07:28:31.237Z,3.60
2017-06-29T07:30:58.797Z,3.50
2017-06-29T07:33:26.314Z,3.43
2017-06-29T07:35:54.632Z,3.00
2017-06-29T07:38:22.141Z,2.70
2017-06-29T07:40:49.757Z,3.27
2017-06-29T07:43:17.269Z,3.63
2017-06-29T07:45:45.557Z,2.83
2017-06-29T07:48:13.082Z,4.20
2017-06-29T07:50:40.603Z,2.97
2017-06-29T07:53:08.116Z,3.07
2017-06-29T07:55:36.396Z,3.00
2017-06-29T07:58:04.712Z,2.90
2017-06-29T08:00:32.268Z,3.77
2017-06-29T08:02:59.829Z,3.10
2017-06-29T08:05:27.388Z,2.63
2017-06-29T08:07:54.946Z,2.03
2017-06-29T08:10:22.462Z,1.97
2017-06-29T08:12:50.784Z,2.07
2017-06-29T08:15:18.341Z,1.87
2017-06-29T08:17:45.905Z,1.60
2017-06-29T08:20:13.453Z,1.73
2017-06-29T08:22:41.017Z,1.53
2017-06-29T08:25:08.582Z,1.47
2017-06-29T08:27:36.138Z,1.90
2017-06-29T08:30:03.697Z,1.93
2017-06-29T08:32:31.213Z,1.90
2017-06-29T08:34:59.632Z,1.87
2017-06-29T08:37:27.205Z,1.80
2017-06-29T08:39:54.752Z,1.90
2017-06-29T08:42:22.310Z,1.80
2017-06-29T08:44:49.867Z,1.80
2017-06-29T08:47:17.428Z,1.70
2017-06-29T08:49:44.989Z,2.60
2017-06-29T08:52:12.545Z,1.70
2017-06-29T08:54:40.065Z,1.80
2017-06-29T08:57:08.393Z,2.47
2017-06-29T08:59:35.941Z,2.40
2017-06-29T09:02:03.498Z,2.30
2017-06-29T09:04:31.028Z,2.20
2017-06-29T09:06:59.336Z,2.10
2017-06-29T09:09:26.852Z,2.00
2017-06-29T09:11:55.169Z,1.73
2017-06-29T09:14:22.727Z,2.23
2017-06-29T09:16:50.290Z,2.87
2017-06-29T09:19:17.845Z,2.30
2017-06-29T09:21:45.406Z,2.57
2017-06-29T09:24:12.962Z,2.80
2017-06-29T09:26:40.525Z,3.40
2017-06-29T09:29:08.084Z,3.53
2017-06-29T09:31:35.641Z,3.40
2017-06-29T09:34:03.201Z,3.03
2017-06-29T09:36:30.757Z,3.30
2017-06-29T09:38:58.321Z,2.60
2017-06-29T09:41:25.880Z,2.70
2017-06-29T09:43:53.444Z,2.50
2017-06-29T09:46:21.814Z,3.00
2017-06-29T09:48:49.372Z,2.87
2017-06-29T09:51:16.934Z,3.27
2017-06-29T09:53:44.457Z,3.93
2017-06-29T09:56:12.744Z,3.00
2017-06-29T09:58:40.256Z,2.70
2017-06-29T10:01:07.764Z,2.97
2017-06-29T10:03:35.343Z,2.70
2017-06-29T10:06:02.901Z,2.50
2017-06-29T10:08:30.456Z,2.40
2017-06-29T10:10:58.017Z,2.13
2017-06-29T10:13:25.580Z,2.40
2017-06-29T10:15:53.134Z,2.80
2017-06-29T10:18:20.697Z,1.40
2017-06-29T10:20:48.212Z,1.33
2017-06-29T10:23:16.525Z,1.43
2017-06-29T10:25:44.092Z,1.30
2017-06-29T10:28:11.646Z,2.03
2017-06-29T10:30:39.156Z,1.77
2017-06-29T10:33:06.773Z,1.67
2017-06-29T10:35:34.330Z,1.57
2017-06-29T10:38:01.842Z,1.30
2017-06-29T10:40:30.133Z,1.53
2017-06-29T10:42:57.717Z,1.47
2017-06-29T10:45:25.273Z,1.50
2017-06-29T10:47:52.838Z,1.63
2017-06-29T10:50:20.396Z,1.80
2017-06-29T10:52:47.961Z,2.10
2017-06-29T10:55:15.513Z,1.60
2017-06-29T10:57:43.025Z,1.70
2017-06-29T11:00:11.350Z,1.97
2017-06-29T11:02:38.906Z,2.07
2017-06-29T11:05:06.469Z,1.83
2017-06-29T11:07:34.024Z,2.10
2017-06-29T11:10:01.589Z,3.27
2017-06-29T11:12:29.249Z,2.37
2017-06-29T11:14:56.807Z,1.93
2017-06-29T11:17:24.333Z,3.63
2017-06-29T11:19:52.639Z,2.20
2017-06-29T11:22:20.201Z,2.13
2017-06-29T11:24:47.762Z,1.77
2017-06-29T11:27:15.321Z,1.70
2017-06-29T11:29:42.845Z,1.30
2017-06-29T11:32:11.153Z,2.37
2017-06-29T11:34:38.711Z,1.90
2017-06-29T11:37:06.265Z,1.70
2017-06-29T11:39:33.831Z,1.27
2017-06-29T11:42:01.386Z,1.43
2017-06-29T11:44:28.942Z,2.50
2017-06-29T11:46:56.507Z,1.07
2017-06-29T11:49:24.073Z,1.30
2017-06-29T11:51:51.622Z,1.10
2017-06-29T11:54:19.185Z,0.90
2017-06-29T11:56:46.697Z,0.80
2017-06-29T11:59:15.016Z,0.83
2017-06-29T12:01:42.575Z,0.70
2017-06-29T12:04:10.084Z,1.00
2017-06-29T12:06:37.604Z,0.80
2017-06-29T12:09:05.121Z,0.70
2017-06-29T12:11:33.402Z,0.83
2017-06-29T12:14:00.985Z,0.40
2017-06-29T12:16:28.501Z,1.83
2017-06-29T12:18:56.821Z,0.80
2017-06-29T12:21:24.341Z,0.70
2017-06-29T12:23:52.628Z,0.80
2017-06-29T12:26:20.145Z,0.50
2017-06-29T12:28:47.773Z,0.77
2017-06-29T12:31:15.334Z,0.50
2017-06-29T12:33:42.891Z,0.93
2017-06-29T12:36:10.413Z,0.60
2017-06-29T12:38:38.704Z,0.70
2017-06-29T12:41:06.289Z,0.43
2017-06-29T12:43:33.844Z,0.43
2017-06-29T12:46:01.361Z,0.40
2017-06-29T12:48:29.641Z,0.93
2017-06-29T12:50:57.957Z,0.63
2017-06-29T12:53:25.478Z,0.60
2017-06-29T12:55:53.793Z,0.70
2017-06-29T12:58:21.309Z,0.47
2017-06-29T13:00:49.617Z,0.70
2017-06-29T13:03:17.130Z,0.63
2017-06-29T13:05:44.640Z,0.50
2017-06-29T13:08:12.201Z,0.50
2017-06-29T13:10:39.760Z,0.60
2017-06-29T13:13:07.273Z,0.80
2017-06-29T13:15:35.598Z,0.50
2017-06-29T13:18:03.173Z,0.73
2017-06-29T13:20:30.711Z,0.60
2017-06-29T13:22:58.272Z,0.70
2017-06-29T13:25:25.832Z,0.60
2017-06-29T13:27:53.403Z,0.70
2017-06-29T13:30:20.921Z,0.70
2017-06-29T13:32:48.508Z,0.60
2017-06-29T13:35:16.065Z,1.27
2017-06-29T13:37:43.580Z,1.27
2017-06-29T13:40:11.901Z,1.03
2017-06-29T13:42:39.414Z,1.40
2017-06-29T13:45:07.708Z,1.40
2017-06-29T13:47:36.013Z,1.10
2017-06-29T13:50:03.573Z,1.10
2017-06-29T13:52:31.135Z,1.07
2017-06-29T13:54:58.646Z,1.00
2017-06-29T13:57:26.966Z,2.27
2017-06-29T13:59:54.524Z,1.20
2017-06-29T14:02:22.083Z,0.80
2017-06-29T14:04:49.597Z,0.80
2017-06-29T14:07:17.920Z,0.90
2017-06-29T14:09:45.477Z,1.40
2017-06-29T14:12:13.037Z,1.00
2017-06-29T14:14:40.597Z,1.03
2017-06-29T14:17:08.121Z,1.30
2017-06-29T14:19:36.430Z,0.70
2017-06-29T14:22:03.953Z,1.37
2017-06-29T14:24:32.244Z,1.20
2017-06-29T14:26:59.825Z,1.43
2017-06-29T14:29:27.384Z,1.40
2017-06-29T14:31:54.900Z,1.20
2017-06-29T14:34:23.189Z,1.03
2017-06-29T14:36:51.497Z,1.23
2017-06-29T14:39:19.009Z,1.90
2017-06-29T14:41:47.332Z,1.40
2017-06-29T14:44:14.888Z,1.20
2017-06-29T14:46:42.409Z,1.50
2017-06-29T14:49:10.721Z,1.20
2017-06-29T14:51:38.280Z,1.57
2017-06-29T14:54:05.844Z,1.30
2017-06-29T14:56:33.360Z,2.13
2017-06-29T14:59:01.645Z,1.17
2017-06-29T15:01:29.952Z,1.33
2017-06-29T15:03:57.509Z,1.43
2017-06-29T15:06:25.028Z,1.40
2017-06-29T15:08:53.330Z,1.50
2017-06-29T15:11:21.108Z,1.70
2017-06-29T15:13:48.632Z,1.50
2017-06-29T15:16:16.925Z,1.60
2017-06-29T15:18:44.505Z,1.47
2017-06-29T15:21:12.065Z,1.77
2017-06-29T15:23:39.593Z,2.00
2017-06-29T15:26:07.180Z,1.90
2017-06-29T15:28:34.742Z,1.97
2017-06-29T15:31:02.309Z,2.00
2017-06-29T15:33:29.856Z,1.80
2017-06-29T15:35:57.417Z,1.90
2017-06-29T15:38:24.985Z,2.00
2017-06-29T15:40:52.549Z,2.40
2017-06-29T15:43:20.076Z,1.60
2017-06-29T15:45:47.658Z,1.93
2017-06-29T15:48:15.220Z,1.70
2017-06-29T15:50:42.729Z,2.10
2017-06-29T15:53:11.017Z,3.00
2017-06-29T15:55:38.541Z,2.43
2017-06-29T15:58:06.060Z,2.13
2017-06-29T16:00:33.625Z,1.30
2017-06-29T16:03:01.187Z,2.20
2017-06-29T16:05:28.710Z,2.40
2017-06-29T16:07:56.296Z,1.80
2017-06-29T16:10:23.860Z,2.83
2017-06-29T16:12:51.417Z,2.07
2017-06-29T16:15:18.981Z,1.40
2017-06-29T16:17:46.567Z,1.50
2017-06-29T16:20:14.093Z,1.33
2017-06-29T16:22:41.645Z,2.40
2017-06-29T16:25:09.168Z,2.30
2017-06-29T16:27:37.456Z,2.10
2017-06-29T16:30:05.733Z,1.97
2017-06-29T16:32:33.314Z,1.60
2017-06-29T16:35:00.832Z,1.63
2017-06-29T16:37:29.125Z,1.57
2017-06-29T16:39:57.430Z,1.73
2017-06-29T16:42:24.986Z,1.70
2017-06-29T16:44:52.549Z,1.83
2017-06-29T16:47:20.103Z,1.73
2017-06-29T16:49:47.665Z,2.00
2017-06-29T16:52:15.180Z,1.93
2017-06-29T16:54:43.500Z,1.77
2017-06-29T16:57:11.061Z,1.70
2017-06-29T16:59:38.618Z,2.07
2017-06-29T17:02:06.389Z,1.87
2017-06-29T17:04:33.905Z,1.83
2017-06-29T17:07:02.230Z,1.67
2017-06-29T17:09:29.776Z,1.70
2017-06-29T17:11:57.342Z,1.60
2017-06-29T17:14:24.894Z,1.80
2017-06-29T17:16:52.453Z,2.07
2017-06-29T17:19:20.011Z,2.23
2017-06-29T17:21:47.567Z,1.43
2017-06-29T17:24:15.129Z,1.50
2017-06-29T17:26:42.697Z,1.60
2017-06-29T17:29:10.249Z,2.10
2017-06-29T17:31:37.809Z,1.50
2017-06-29T17:34:05.370Z,2.03
2017-06-29T17:36:32.929Z,1.90
2017-06-29T17:39:00.456Z,2.20
2017-06-29T17:41:27.977Z,1.80
2017-06-29T17:43:55.605Z,2.30
2017-06-29T17:46:23.121Z,1.80
2017-06-29T17:48:51.548Z,2.37
2017-06-29T17:51:19.101Z,2.20
2017-06-29T17:53:46.613Z,2.47
2017-06-29T17:56:14.936Z,2.73
2017-06-29T17:58:42.493Z,2.57
2017-06-29T18:01:10.055Z,15.67
2017-06-29T18:03:37.712Z,2.70
2017-06-29T18:06:05.228Z,2.50
2017-06-29T18:08:33.549Z,2.90
2017-06-29T18:11:01.102Z,2.90
2017-06-29T18:13:28.667Z,2.50
2017-06-29T18:15:56.231Z,2.50
2017-06-29T18:18:23.785Z,3.20
2017-06-29T18:20:51.341Z,3.10
2017-06-29T18:23:18.865Z,2.60
2017-06-29T18:25:47.178Z,2.97
2017-06-29T18:28:14.737Z,2.60
2017-06-29T18:30:42.261Z,3.13
2017-06-29T18:33:10.548Z,3.30
2017-06-29T18:35:38.131Z,3.90
2017-06-29T18:38:05.667Z,2.80
2017-06-29T18:40:33.194Z,4.07
2017-06-29T18:43:00.717Z,3.23
2017-06-29T18:45:28.237Z,3.53
2017-06-29T18:47:55.876Z,3.17
2017-06-29T18:50:23.479Z,3.87
2017-06-29T18:52:51.045Z,3.30
2017-06-29T18:55:18.601Z,3.60
2017-06-29T18:57:46.160Z,8.73
2017-06-29T19:00:13.673Z,3.20
2017-06-29T19:02:41.952Z,3.60
2017-06-29T19:05:10.273Z,3.43
2017-06-29T19:07:37.825Z,3.10
2017-06-29T19:10:05.389Z,2.40
2017-06-29T19:12:32.949Z,3.00
2017-06-29T19:15:00.461Z,2.63
2017-06-29T19:17:28.752Z,2.47
2017-06-29T19:19:56.345Z,2.90
2017-06-29T19:22:23.861Z,2.60
2017-06-29T19:24:52.140Z,2.77
2017-06-29T19:27:20.427Z,2.87
2017-06-29T19:29:47.952Z,2.10
2017-06-29T19:32:15.468Z,2.47
2017-06-29T19:34:43.129Z,2.73
2017-06-29T19:37:10.692Z,2.43
2017-06-29T19:39:38.245Z,2.93
2017-06-29T19:42:06.245Z,2.37
2017-06-29T19:44:33.757Z,2.40
2017-06-29T19:47:01.286Z,2.73
2017-06-29T19:49:29.609Z,3.00
2017-06-29T19:51:57.167Z,3.80
2017-06-29T19:54:24.726Z,2.77
2017-06-29T19:56:52.289Z,3.63
2017-06-29T19:59:19.841Z,3.13
2017-06-29T20:01:47.357Z,3.30
2017-06-29T20:04:15.685Z,3.10
2017-06-29T20:06:43.242Z,3.10
2017-06-29T20:09:10.757Z,5.70
2017-06-29T20:11:39.073Z,4.67
2017-06-29T20:14:06.633Z,3.93
2017-06-29T20:16:34.193Z,3.87
2017-06-29T20:19:01.713Z,4.40
2017-06-29T20:21:29.999Z,3.67
2017-06-29T20:23:58.322Z,4.40
2017-06-29T20:26:25.861Z,4.43
2017-06-29T20:28:53.430Z,4.20
2017-06-29T20:31:20.988Z,3.70
2017-06-29T20:33:48.540Z,4.40
2017-06-29T20:36:16.108Z,4.17
2017-06-29T20:38:43.653Z,3.50
2017-06-29T20:41:11.168Z,3.63
2017-06-29T20:43:39.461Z,4.40
2017-06-29T20:46:07.744Z,3.80
2017-06-29T20:48:35.325Z,4.10
2017-06-29T20:51:02.884Z,4.07
2017-06-29T20:53:30.445Z,4.83
2017-06-29T20:55:58.002Z,4.53
2017-06-29T20:58:25.560Z,4.07
2017-06-29T21:00:53.085Z,4.67
2017-06-29T21:03:21.372Z,4.10
2017-06-29T21:05:48.894Z,4.67
2017-06-29T21:08:16.425Z,4.07
2017-06-29T21:10:43.937Z,3.80
2017-06-29T21:13:12.254Z,4.43
2017-06-29T21:15:39.805Z,4.13
2017-06-29T21:18:07.325Z,4.13
2017-06-29T21:20:35.639Z,4.70
2017-06-29T21:23:03.198Z,4.30
2017-06-29T21:25:30.757Z,4.40
2017-06-29T21:27:58.320Z,4.10
2017-06-29T21:30:25.875Z,4.20
2017-06-29T21:32:53.740Z,3.97
2017-06-29T21:35:21.300Z,3.40
2017-06-29T21:37:48.861Z,3.87
2017-06-29T21:40:16.376Z,4.10
2017-06-29T21:42:44.693Z,4.20
2017-06-29T21:45:12.217Z,3.43
2017-06-29T21:47:40.533Z,4.00
2017-06-29T21:50:08.088Z,4.20
2017-06-29T21:52:35.696Z,4.20
2017-06-29T21:55:03.217Z,3.83
2017-06-29T21:57:30.763Z,4.13
2017-06-29T21:59:58.426Z,3.80
2017-06-29T22:02:25.984Z,3.60
2017-06-29T22:04:53.545Z,4.17
2017-06-29T22:07:21.061Z,4.23
2017-06-29T22:09:49.481Z,4.20
2017-06-29T22:12:17.057Z,4.50
2017-06-29T22:14:44.569Z,4.40
2017-06-29T22:17:12.850Z,3.73
2017-06-29T22:19:40.429Z,4.00
2017-06-29T22:22:07.999Z,4.23
2017-06-29T22:24:35.514Z,3.93
2017-06-29T22:27:03.800Z,4.33
2017-06-29T22:29:31.385Z,5.00
2017-06-29T22:31:58.946Z,4.00
2017-06-29T22:34:26.498Z,4.50
2017-06-29T22:36:54.017Z,4.30
2017-06-29T22:39:22.341Z,4.13
2017-06-29T22:41:49.902Z,4.53
2017-06-29T22:44:17.457Z,4.27
2017-06-29T22:46:45.005Z,4.30
2017-06-29T22:49:12.577Z,4.50
2017-06-29T22:51:40.136Z,4.40
2017-06-29T22:54:07.643Z,4.23
2017-06-29T22:56:35.160Z,4.50
2017-06-29T22:59:02.809Z,4.73
2017-06-29T23:01:30.370Z,4.60
2017-06-29T23:03:57.930Z,4.47
2017-06-29T23:06:25.490Z,5.27
2017-06-29T23:08:53.009Z,4.70
2017-06-29T23:11:21.418Z,5.00
2017-06-29T23:13:48.924Z,4.40
2017-06-29T23:16:16.555Z,5.33
2017-06-29T23:18:44.069Z,3.40
2017-06-29T23:21:12.376Z,4.60
2017-06-29T23:23:39.938Z,4.67
2017-06-29T23:26:07.461Z,4.40
2017-06-29T23:28:35.745Z,4.10
2017-06-29T23:31:03.330Z,4.43
2017-06-29T23:33:30.845Z,4.23
2017-06-29T23:35:59.260Z,4.37
2017-06-29T23:38:26.824Z,4.70
2017-06-29T23:40:54.385Z,4.80
2017-06-29T23:43:21.903Z,4.47
2017-06-29T23:45:50.222Z,3.83
2017-06-29T23:48:17.776Z,3.90
2017-06-29T23:50:45.337Z,4.67
2017-06-29T23:53:12.894Z,4.37
2017-06-29T23:55:40.456Z,5.53
2017-06-29T23:58:08.012Z,4.10
